createdAt,value
2022-08-27T00:00:54.350Z,69.90
2022-08-27T00:01:58.560Z,69.90
2022-08-27T00:03:02.629Z,70.00
2022-08-27T00:04:07.248Z,70.20
2022-08-27T00:05:11.476Z,70.80
2022-08-27T00:06:16.255Z,70.20
2022-08-27T00:07:19.650Z,70.10
2022-08-27T00:08:22.086Z,70.20
2022-08-27T00:09:27.093Z,70.20
2022-08-27T00:10:29.702Z,70.20
2022-08-27T00:11:34.177Z,70.20
2022-08-27T00:12:36.998Z,70.30
2022-08-27T00:13:39.821Z,70.50
2022-08-27T00:14:42.224Z,70.40
2022-08-27T00:15:47.948Z,70.30
2022-08-27T00:16:50.693Z,70.40
2022-08-27T00:17:56.274Z,70.30
2022-08-27T00:19:01.143Z,70.50
2022-08-27T00:20:06.199Z,70.30
2022-08-27T00:21:09.506Z,70.30
2022-08-27T00:22:12.507Z,70.40
2022-08-27T00:23:14.938Z,70.70
2022-08-27T00:24:17.491Z,70.50
2022-08-27T00:25:23.763Z,70.50
2022-08-27T00:26:26.159Z,70.50
2022-08-27T00:27:33.304Z,70.60
2022-08-27T00:28:36.070Z,70.70
2022-08-27T00:29:38.441Z,70.70
2022-08-27T00:30:43.677Z,70.60
2022-08-27T00:31:46.582Z,70.50
2022-08-27T00:32:56.973Z,70.60
2022-08-27T00:33:59.407Z,70.60
2022-08-27T00:35:02.010Z,70.60
2022-08-27T00:36:06.897Z,70.70
2022-08-27T00:37:10.468Z,71.30
2022-08-27T00:38:13.140Z,70.80
2022-08-27T00:39:16.100Z,70.70
2022-08-27T00:40:20.678Z,70.70
2022-08-27T00:41:23.470Z,70.80
2022-08-27T00:42:28.372Z,70.70
2022-08-27T00:43:46.951Z,70.70
2022-08-27T00:44:51.790Z,70.70
2022-08-27T00:46:20.425Z,71.20
2022-08-27T00:47:26.069Z,70.90
2022-08-27T00:48:36.244Z,70.80
2022-08-27T00:49:47.258Z,70.80
2022-08-27T00:50:53.583Z,70.90
2022-08-27T00:52:05.245Z,71.00
2022-08-27T00:53:13.787Z,71.00
2022-08-27T00:54:18.650Z,70.90
2022-08-27T00:55:42.383Z,71.30
2022-08-27T00:56:45.520Z,70.90
2022-08-27T00:58:11.579Z,70.90
2022-08-27T00:59:16.749Z,70.90
2022-08-27T01:00:22.801Z,71.10
2022-08-27T01:01:32.174Z,71.00
2022-08-27T01:02:42.045Z,71.00
2022-08-27T01:03:53.195Z,71.10
2022-08-27T01:05:16.979Z,71.10
2022-08-27T01:06:23.308Z,71.00
2022-08-27T01:07:28.632Z,71.00
2022-08-27T01:08:36.218Z,71.20
2022-08-27T01:09:45.559Z,71.10
2022-08-27T01:10:49.346Z,71.30
2022-08-27T01:11:52.746Z,71.10
2022-08-27T01:12:57.934Z,71.60
2022-08-27T01:14:04.462Z,71.20
2022-08-27T01:15:13.466Z,71.30
2022-08-27T01:16:23.373Z,71.20
2022-08-27T01:17:26.994Z,71.30
2022-08-27T01:18:35.428Z,71.20
2022-08-27T01:19:53.990Z,71.30
2022-08-27T01:21:05.105Z,71.20
2022-08-27T01:22:07.486Z,71.30
2022-08-27T01:23:34.848Z,71.30
2022-08-27T01:24:48.719Z,71.30
2022-08-27T01:25:51.636Z,71.20
2022-08-27T01:26:55.181Z,71.50
2022-08-27T01:28:00.602Z,71.40
2022-08-27T01:29:03.388Z,71.40
2022-08-27T01:30:09.026Z,71.60
2022-08-27T01:31:13.766Z,71.40
2022-08-27T01:32:19.416Z,71.40
2022-08-27T01:33:29.987Z,71.40
2022-08-27T01:34:35.882Z,71.40
2022-08-27T01:35:38.949Z,71.40
2022-08-27T01:36:42.778Z,71.30
2022-08-27T01:37:49.358Z,71.50
2022-08-27T01:38:59.535Z,71.60
2022-08-27T01:40:06.393Z,71.60
2022-08-27T01:41:08.827Z,71.70
2022-08-27T01:42:32.112Z,71.60
2022-08-27T01:43:36.508Z,71.50
2022-08-27T01:44:53.191Z,71.80
2022-08-27T01:45:55.630Z,71.60
2022-08-27T01:46:58.422Z,71.60
2022-08-27T01:48:02.447Z,71.70
2022-08-27T01:49:10.650Z,71.70
2022-08-27T01:50:26.055Z,71.70
2022-08-27T01:51:28.530Z,71.60
2022-08-27T01:52:31.599Z,71.80
2022-08-27T01:53:36.399Z,71.70
2022-08-27T01:54:38.842Z,71.80
2022-08-27T01:55:43.541Z,71.70
2022-08-27T01:56:50.790Z,71.70
2022-08-27T01:57:54.377Z,71.70
2022-08-27T01:58:59.285Z,72.10
2022-08-27T02:00:11.999Z,71.80
2022-08-27T02:01:16.847Z,71.70
2022-08-27T02:02:21.921Z,71.90
2022-08-27T02:03:25.268Z,71.70
2022-08-27T02:04:30.136Z,71.70
2022-08-27T02:05:32.490Z,71.70
2022-08-27T02:06:46.942Z,71.80
2022-08-27T02:07:49.717Z,71.70
2022-08-27T02:08:56.795Z,71.90
2022-08-27T02:09:59.168Z,71.90
2022-08-27T02:11:02.150Z,71.80
2022-08-27T02:12:07.788Z,71.70
2022-08-27T02:13:13.436Z,71.80
2022-08-27T02:14:15.974Z,71.80
2022-08-27T02:15:21.702Z,71.80
2022-08-27T02:16:25.993Z,71.80
2022-08-27T02:17:28.673Z,71.90
2022-08-27T02:18:31.170Z,72.00
2022-08-27T02:19:33.573Z,71.80
2022-08-27T02:20:36.750Z,71.90
2022-08-27T02:21:39.130Z,71.80
2022-08-27T02:22:42.306Z,71.90
2022-08-27T02:23:44.824Z,71.90
2022-08-27T02:24:47.200Z,71.90
2022-08-27T02:25:50.320Z,71.90
2022-08-27T02:26:52.719Z,71.90
2022-08-27T02:28:00.115Z,71.90
2022-08-27T02:29:02.769Z,72.10
2022-08-27T02:30:06.281Z,71.90
2022-08-27T02:31:11.145Z,72.00
2022-08-27T02:32:17.585Z,71.90
2022-08-27T02:33:36.164Z,72.10
2022-08-27T02:34:38.536Z,72.00
2022-08-27T02:35:43.846Z,72.00
2022-08-27T02:36:46.855Z,72.00
2022-08-27T02:37:52.058Z,72.10
2022-08-27T02:38:55.386Z,72.00
2022-08-27T02:40:00.700Z,72.00
2022-08-27T02:41:03.313Z,72.10
2022-08-27T02:42:05.790Z,72.10
2022-08-27T02:43:08.860Z,72.00
2022-08-27T02:44:16.143Z,72.20
2022-08-27T02:45:19.603Z,72.10
2022-08-27T02:46:22.069Z,72.10
2022-08-27T02:47:24.506Z,72.10
2022-08-27T02:48:27.159Z,72.10
2022-08-27T02:49:39.942Z,72.10
2022-08-27T02:50:43.789Z,72.10
2022-08-27T02:51:46.188Z,72.10
2022-08-27T02:52:48.598Z,72.10
2022-08-27T02:53:52.110Z,72.10
2022-08-27T02:54:54.511Z,72.10
2022-08-27T02:55:56.891Z,72.10
2022-08-27T02:57:00.105Z,72.20
2022-08-27T02:58:05.337Z,72.10
2022-08-27T02:59:07.757Z,72.20
2022-08-27T03:00:14.453Z,72.20
2022-08-27T03:01:16.870Z,72.10
2022-08-27T03:02:20.969Z,72.20
2022-08-27T03:03:26.243Z,72.20
2022-08-27T03:04:29.331Z,72.40
2022-08-27T03:05:34.006Z,72.50
2022-08-27T03:06:36.602Z,72.20
2022-08-27T03:07:42.433Z,72.20
2022-08-27T03:08:52.346Z,72.20
2022-08-27T03:09:55.768Z,72.20
2022-08-27T03:10:58.168Z,72.20
2022-08-27T03:12:02.594Z,72.30
2022-08-27T03:13:04.941Z,72.30
2022-08-27T03:14:08.228Z,72.30
2022-08-27T03:15:14.169Z,72.20
2022-08-27T03:16:16.643Z,72.30
2022-08-27T03:17:38.032Z,72.30
2022-08-27T03:18:40.732Z,72.20
2022-08-27T03:19:45.564Z,72.30
2022-08-27T03:20:53.984Z,72.20
2022-08-27T03:22:01.255Z,72.30
2022-08-27T03:23:03.686Z,72.20
2022-08-27T03:24:11.313Z,72.30
2022-08-27T03:25:17.168Z,72.20
2022-08-27T03:26:22.040Z,72.30
2022-08-27T03:27:24.484Z,72.30
2022-08-27T03:28:30.035Z,72.30
2022-08-27T03:29:35.460Z,72.30
2022-08-27T03:30:37.879Z,72.30
2022-08-27T03:31:43.115Z,72.30
2022-08-27T03:32:46.207Z,72.30
2022-08-27T03:33:48.966Z,72.30
2022-08-27T03:35:03.909Z,72.30
2022-08-27T03:36:08.583Z,72.30
2022-08-27T03:37:11.456Z,72.30
2022-08-27T03:38:15.271Z,72.40
2022-08-27T03:39:17.636Z,72.30
2022-08-27T03:40:20.109Z,72.40
2022-08-27T03:41:40.030Z,72.30
2022-08-27T03:42:47.974Z,72.40
2022-08-27T03:43:52.950Z,72.40
2022-08-27T03:44:55.370Z,72.30
2022-08-27T03:46:03.076Z,72.50
2022-08-27T03:47:05.559Z,72.50
2022-08-27T03:48:08.458Z,72.40
2022-08-27T03:49:13.768Z,72.40
2022-08-27T03:50:19.465Z,72.40
2022-08-27T03:51:21.875Z,72.40
2022-08-27T03:52:24.260Z,72.40
2022-08-27T03:53:29.001Z,72.30
2022-08-27T03:54:33.959Z,72.40
2022-08-27T03:55:36.924Z,72.40
2022-08-27T03:56:41.442Z,72.50
2022-08-27T03:57:46.371Z,72.50
2022-08-27T03:58:53.472Z,72.40
2022-08-27T03:59:58.327Z,72.40
2022-08-27T04:01:07.434Z,72.40
2022-08-27T04:02:09.881Z,72.50
2022-08-27T04:03:13.629Z,72.40
2022-08-27T04:04:17.106Z,72.50
2022-08-27T04:05:19.583Z,72.50
2022-08-27T04:06:22.623Z,72.50
2022-08-27T04:07:27.134Z,72.50
2022-08-27T04:08:29.950Z,72.40
2022-08-27T04:09:32.338Z,72.40
2022-08-27T04:10:35.002Z,72.40
2022-08-27T04:11:37.694Z,72.40
2022-08-27T04:12:40.299Z,72.40
2022-08-27T04:13:44.919Z,72.50
2022-08-27T04:14:49.753Z,72.50
2022-08-27T04:15:55.618Z,72.50
2022-08-27T04:16:58.670Z,72.60
2022-08-27T04:18:01.296Z,72.50
2022-08-27T04:19:04.838Z,72.50
2022-08-27T04:20:33.858Z,72.50
2022-08-27T04:21:37.708Z,72.60
2022-08-27T04:22:42.730Z,72.60
2022-08-27T04:23:45.111Z,72.50
2022-08-27T04:24:47.538Z,72.50
2022-08-27T04:25:52.768Z,72.60
2022-08-27T04:26:55.138Z,72.70
2022-08-27T04:27:59.802Z,72.70
2022-08-27T04:29:02.186Z,72.50
2022-08-27T04:30:06.827Z,72.60
2022-08-27T04:31:16.532Z,72.60
2022-08-27T04:32:20.743Z,72.60
2022-08-27T04:33:24.340Z,72.60
2022-08-27T04:34:26.779Z,72.60
2022-08-27T04:35:29.155Z,72.50
2022-08-27T04:36:37.953Z,72.60
2022-08-27T04:37:40.551Z,72.60
2022-08-27T04:38:47.429Z,72.60
2022-08-27T04:39:53.005Z,72.50
2022-08-27T04:41:14.092Z,72.70
2022-08-27T04:42:18.522Z,72.60
2022-08-27T04:43:23.950Z,72.60
2022-08-27T04:44:30.184Z,72.60
2022-08-27T04:45:32.547Z,72.60
2022-08-27T04:46:40.619Z,72.60
2022-08-27T04:47:43.070Z,72.60
2022-08-27T04:48:47.857Z,72.60
2022-08-27T04:49:52.063Z,72.70
2022-08-27T04:51:01.854Z,72.60
2022-08-27T04:52:05.989Z,72.60
2022-08-27T04:53:14.079Z,72.70
2022-08-27T04:54:16.783Z,72.70
2022-08-27T04:55:26.932Z,72.70
2022-08-27T04:56:30.545Z,72.80
2022-08-27T04:57:38.014Z,72.70
2022-08-27T04:58:42.021Z,72.70
2022-08-27T04:59:44.665Z,72.70
2022-08-27T05:00:53.098Z,72.60
2022-08-27T05:01:57.859Z,72.70
2022-08-27T05:03:02.647Z,72.70
2022-08-27T05:04:08.509Z,72.70
2022-08-27T05:05:15.454Z,72.90
2022-08-27T05:06:18.969Z,72.70
2022-08-27T05:07:21.349Z,72.70
2022-08-27T05:08:23.729Z,72.70
2022-08-27T05:09:26.997Z,72.70
2022-08-27T05:10:29.497Z,72.80
2022-08-27T05:11:39.919Z,72.80
2022-08-27T05:12:43.030Z,72.70
2022-08-27T05:13:46.751Z,72.70
2022-08-27T05:14:49.112Z,72.70
2022-08-27T05:16:01.883Z,72.70
2022-08-27T05:17:06.491Z,72.70
2022-08-27T05:18:11.364Z,72.70
2022-08-27T05:19:16.695Z,72.70
2022-08-27T05:20:22.617Z,72.70
2022-08-27T05:21:34.887Z,72.80
2022-08-27T05:22:39.831Z,72.70
2022-08-27T05:23:47.467Z,72.80
2022-08-27T05:24:54.573Z,72.80
2022-08-27T05:26:00.306Z,72.80
2022-08-27T05:27:05.336Z,72.80
2022-08-27T05:28:09.168Z,72.80
2022-08-27T05:29:12.284Z,72.80
2022-08-27T05:30:17.111Z,72.80
2022-08-27T05:31:22.766Z,72.90
2022-08-27T05:32:25.547Z,72.80
2022-08-27T05:33:30.067Z,72.90
2022-08-27T05:34:32.594Z,72.80
2022-08-27T05:35:43.458Z,72.80
2022-08-27T05:36:48.549Z,72.80
2022-08-27T05:37:54.535Z,72.80
2022-08-27T05:39:01.419Z,72.80
2022-08-27T05:40:05.304Z,72.90
2022-08-27T05:41:14.535Z,72.80
2022-08-27T05:42:16.893Z,72.90
2022-08-27T05:43:19.288Z,72.90
2022-08-27T05:44:40.728Z,72.90
2022-08-27T05:45:48.077Z,72.90
2022-08-27T05:46:55.509Z,73.40
2022-08-27T05:47:58.640Z,72.80
2022-08-27T05:49:01.643Z,72.90
2022-08-27T05:50:04.351Z,72.80
2022-08-27T05:51:22.520Z,72.90
2022-08-27T05:52:28.719Z,72.90
2022-08-27T05:53:31.136Z,72.90
2022-08-27T05:54:36.587Z,72.90
2022-08-27T05:55:48.885Z,72.90
2022-08-27T05:57:03.730Z,72.90
2022-08-27T05:58:29.194Z,73.00
2022-08-27T05:59:50.295Z,72.90
2022-08-27T06:01:10.526Z,72.90
2022-08-27T06:02:13.173Z,72.90
2022-08-27T06:03:15.579Z,72.90
2022-08-27T06:04:22.680Z,72.90
2022-08-27T06:05:27.588Z,72.90
2022-08-27T06:06:33.915Z,72.90
2022-08-27T06:07:36.311Z,72.90
2022-08-27T06:08:45.612Z,72.90
2022-08-27T06:09:47.970Z,72.90
2022-08-27T06:10:55.760Z,72.80
2022-08-27T06:12:03.426Z,72.90
2022-08-27T06:13:05.763Z,72.90
2022-08-27T06:14:09.479Z,72.90
2022-08-27T06:15:13.916Z,72.90
2022-08-27T06:16:25.782Z,72.90
2022-08-27T06:17:31.486Z,72.90
2022-08-27T06:18:35.311Z,72.90
2022-08-27T06:19:37.783Z,72.90
2022-08-27T06:20:40.154Z,72.90
2022-08-27T06:22:01.070Z,72.80
2022-08-27T06:23:09.958Z,72.90
2022-08-27T06:24:12.946Z,72.90
2022-08-27T06:25:15.571Z,73.00
2022-08-27T06:26:22.758Z,72.90
2022-08-27T06:27:27.515Z,73.00
2022-08-27T06:28:32.215Z,73.00
2022-08-27T06:29:35.008Z,73.20
2022-08-27T06:30:37.446Z,73.10
2022-08-27T06:31:40.745Z,73.00
2022-08-27T06:32:45.519Z,73.00
2022-08-27T06:33:48.931Z,73.10
2022-08-27T06:34:51.523Z,73.10
2022-08-27T06:35:53.889Z,73.10
2022-08-27T06:36:58.721Z,73.10
2022-08-27T06:38:05.683Z,73.20
2022-08-27T06:39:13.657Z,73.00
2022-08-27T06:40:17.638Z,73.00
2022-08-27T06:41:24.707Z,73.10
2022-08-27T06:42:28.184Z,73.10
2022-08-27T06:43:30.581Z,73.10
2022-08-27T06:44:33.798Z,73.10
2022-08-27T06:45:40.847Z,73.10
2022-08-27T06:46:45.650Z,73.00
2022-08-27T06:47:50.600Z,73.10
2022-08-27T06:49:02.071Z,73.00
2022-08-27T06:50:04.794Z,73.10
2022-08-27T06:51:09.627Z,73.10
2022-08-27T06:52:12.007Z,73.10
2022-08-27T06:53:17.464Z,73.10
2022-08-27T06:54:29.343Z,73.10
2022-08-27T06:55:35.422Z,73.10
2022-08-27T06:56:40.959Z,73.10
2022-08-27T06:57:43.562Z,73.20
2022-08-27T06:58:46.351Z,73.10
2022-08-27T06:59:48.924Z,73.10
2022-08-27T07:00:54.310Z,73.10
2022-08-27T07:02:02.537Z,73.20
2022-08-27T07:03:06.250Z,73.10
2022-08-27T07:04:11.960Z,73.10
2022-08-27T07:05:19.515Z,73.10
2022-08-27T07:06:22.695Z,73.10
2022-08-27T07:07:31.777Z,73.20
2022-08-27T07:08:39.600Z,73.20
2022-08-27T07:09:48.584Z,73.20
2022-08-27T07:10:57.951Z,73.20
2022-08-27T07:12:03.900Z,73.10
2022-08-27T07:13:08.377Z,73.10
2022-08-27T07:14:10.863Z,73.20
2022-08-27T07:15:13.264Z,73.10
2022-08-27T07:16:20.999Z,73.20
2022-08-27T07:17:25.766Z,73.20
2022-08-27T07:18:31.002Z,73.20
2022-08-27T07:19:41.156Z,73.30
2022-08-27T07:20:44.128Z,73.30
2022-08-27T07:21:46.518Z,73.30
2022-08-27T07:22:49.449Z,73.20
2022-08-27T07:23:59.613Z,73.20
2022-08-27T07:25:04.438Z,73.20
2022-08-27T07:26:12.827Z,73.30
2022-08-27T07:27:15.197Z,73.30
2022-08-27T07:28:17.606Z,73.30
2022-08-27T07:29:20.096Z,73.30
2022-08-27T07:30:22.626Z,73.30
2022-08-27T07:31:25.607Z,73.30
2022-08-27T07:32:31.217Z,73.30
2022-08-27T07:33:34.601Z,73.20
2022-08-27T07:34:39.320Z,73.30
2022-08-27T07:35:41.863Z,73.30
2022-08-27T07:36:44.230Z,73.30
2022-08-27T07:37:49.033Z,73.30
2022-08-27T07:38:56.517Z,73.40
2022-08-27T07:40:10.339Z,73.40
2022-08-27T07:41:14.327Z,73.40
2022-08-27T07:42:40.925Z,73.40
2022-08-27T07:44:04.427Z,73.40
2022-08-27T07:45:07.299Z,73.30
2022-08-27T07:46:11.891Z,73.30
2022-08-27T07:47:17.700Z,73.30
2022-08-27T07:48:20.062Z,73.40
2022-08-27T07:49:25.442Z,73.40
2022-08-27T07:50:27.832Z,73.40
2022-08-27T07:51:32.296Z,73.40
2022-08-27T07:52:34.663Z,73.40
2022-08-27T07:53:39.458Z,73.40
2022-08-27T07:54:44.264Z,73.40
2022-08-27T07:55:46.903Z,73.40
2022-08-27T07:56:54.790Z,73.50
2022-08-27T07:58:02.621Z,73.50
2022-08-27T07:59:04.998Z,73.40
2022-08-27T08:00:14.121Z,73.40
2022-08-27T08:01:21.270Z,73.50
2022-08-27T08:02:26.341Z,73.40
2022-08-27T08:03:29.213Z,73.40
2022-08-27T08:04:41.195Z,73.40
2022-08-27T08:05:45.704Z,73.40
2022-08-27T08:06:51.124Z,73.50
2022-08-27T08:07:53.525Z,73.50
2022-08-27T08:08:59.691Z,73.50
2022-08-27T08:10:06.028Z,73.50
2022-08-27T08:11:13.952Z,73.40
2022-08-27T08:12:16.356Z,73.40
2022-08-27T08:13:19.486Z,73.40
2022-08-27T08:14:22.834Z,73.40
2022-08-27T08:15:25.197Z,73.40
2022-08-27T08:16:31.644Z,73.40
2022-08-27T08:17:35.175Z,73.40
2022-08-27T08:18:38.008Z,73.40
2022-08-27T08:19:53.481Z,73.50
2022-08-27T08:21:12.528Z,73.60
2022-08-27T08:22:15.533Z,73.50
2022-08-27T08:23:18.584Z,73.50
2022-08-27T08:24:21.241Z,73.50
2022-08-27T08:25:26.712Z,73.70
2022-08-27T08:26:29.121Z,73.50
2022-08-27T08:27:36.722Z,73.50
2022-08-27T08:28:40.074Z,73.40
2022-08-27T08:29:47.131Z,73.40
2022-08-27T08:30:56.490Z,73.50
2022-08-27T08:31:58.986Z,73.40
2022-08-27T08:33:01.387Z,73.40
2022-08-27T08:34:05.346Z,73.40
2022-08-27T08:35:08.068Z,73.40
2022-08-27T08:36:14.857Z,73.40
2022-08-27T08:37:17.274Z,73.40
2022-08-27T08:38:21.158Z,73.40
2022-08-27T08:39:28.944Z,73.50
2022-08-27T08:40:40.737Z,73.50
2022-08-27T08:41:44.460Z,73.50
2022-08-27T08:42:52.751Z,73.60
2022-08-27T08:43:56.270Z,73.50
2022-08-27T08:45:04.416Z,73.50
2022-08-27T08:46:17.430Z,73.40
2022-08-27T08:47:33.637Z,73.40
2022-08-27T08:48:40.455Z,73.50
2022-08-27T08:50:11.549Z,73.50
2022-08-27T08:51:41.984Z,73.40
2022-08-27T08:52:53.856Z,73.40
2022-08-27T08:54:04.715Z,73.50
2022-08-27T08:55:11.875Z,73.40
2022-08-27T08:56:28.574Z,73.40
2022-08-27T08:57:37.234Z,73.40
2022-08-27T08:58:58.759Z,73.40
2022-08-27T09:00:13.938Z,73.40
2022-08-27T09:01:20.829Z,73.40
2022-08-27T09:02:23.310Z,73.40
2022-08-27T09:03:43.065Z,73.40
2022-08-27T09:04:45.662Z,73.40
2022-08-27T09:05:59.606Z,73.40
2022-08-27T09:07:12.194Z,73.30
2022-08-27T09:08:35.613Z,73.40
2022-08-27T09:10:01.926Z,73.40
2022-08-27T09:11:16.060Z,73.40
2022-08-27T09:12:24.876Z,73.30
2022-08-27T09:13:34.842Z,73.40
2022-08-27T09:14:54.573Z,73.30
2022-08-27T09:16:03.375Z,73.30
2022-08-27T09:17:10.744Z,73.40
2022-08-27T09:18:17.155Z,73.30
2022-08-27T09:19:24.155Z,73.30
2022-08-27T09:20:29.232Z,73.30
2022-08-27T09:21:56.649Z,73.30
2022-08-27T09:23:13.930Z,73.30
2022-08-27T09:24:36.862Z,73.30
2022-08-27T09:25:41.570Z,73.30
2022-08-27T09:26:44.506Z,73.20
2022-08-27T09:27:51.317Z,73.20
2022-08-27T09:29:20.961Z,73.20
2022-08-27T09:30:32.315Z,73.20
2022-08-27T09:31:40.832Z,73.20
2022-08-27T09:32:45.475Z,73.20
2022-08-27T09:33:56.098Z,73.20
2022-08-27T09:35:05.095Z,73.20
2022-08-27T09:36:11.054Z,73.10
2022-08-27T09:37:20.417Z,73.20
2022-08-27T09:38:31.981Z,73.10
2022-08-27T09:39:46.006Z,73.10
2022-08-27T09:41:04.406Z,73.10
2022-08-27T09:42:29.744Z,73.10
2022-08-27T09:43:39.170Z,73.10
2022-08-27T09:44:53.517Z,73.10
2022-08-27T09:46:01.446Z,73.10
2022-08-27T09:47:04.052Z,73.10
2022-08-27T09:48:15.016Z,73.10
2022-08-27T09:49:19.942Z,73.10
2022-08-27T09:50:42.943Z,73.10
2022-08-27T09:51:47.594Z,73.00
2022-08-27T09:52:56.236Z,73.00
2022-08-27T09:54:02.028Z,73.00
2022-08-27T09:55:05.438Z,73.00
2022-08-27T09:56:21.063Z,73.00
2022-08-27T09:57:38.182Z,73.00
2022-08-27T09:58:43.327Z,73.00
2022-08-27T09:59:58.589Z,73.00
2022-08-27T10:01:21.557Z,73.00
2022-08-27T10:02:30.447Z,73.00
2022-08-27T10:03:33.772Z,73.00
2022-08-27T10:04:50.720Z,72.90
2022-08-27T10:05:59.530Z,73.00
2022-08-27T10:07:32.430Z,72.90
2022-08-27T10:08:48.992Z,72.90
2022-08-27T10:10:03.226Z,72.90
2022-08-27T10:11:31.201Z,72.90
2022-08-27T10:12:46.889Z,72.80
2022-08-27T10:14:13.670Z,72.90
2022-08-27T10:15:21.647Z,72.90
2022-08-27T10:16:43.187Z,72.80
2022-08-27T10:18:10.292Z,72.90
2022-08-27T10:19:22.053Z,72.90
2022-08-27T10:20:47.146Z,72.80
2022-08-27T10:22:27.016Z,72.80
2022-08-27T10:23:33.915Z,72.80
2022-08-27T10:24:52.987Z,72.80
2022-08-27T10:26:33.625Z,72.80
2022-08-27T10:28:01.694Z,72.80
2022-08-27T10:29:16.490Z,72.80
2022-08-27T10:30:35.422Z,72.80
2022-08-27T10:31:47.781Z,72.70
2022-08-27T10:33:26.383Z,72.70
2022-08-27T10:34:45.217Z,72.70
2022-08-27T10:36:03.118Z,72.70
2022-08-27T10:37:19.818Z,72.70
2022-08-27T10:38:31.394Z,72.70
2022-08-27T10:40:15.904Z,72.70
2022-08-27T10:41:27.747Z,72.70
2022-08-27T10:42:39.224Z,72.70
2022-08-27T10:43:59.709Z,72.70
2022-08-27T10:45:24.079Z,72.70
2022-08-27T10:47:17.465Z,72.60
2022-08-27T10:48:29.542Z,72.70
2022-08-27T10:49:59.566Z,72.60
2022-08-27T10:51:12.487Z,72.60
2022-08-27T10:52:29.456Z,73.20
2022-08-27T10:54:10.299Z,72.60
2022-08-27T10:55:31.389Z,72.60
2022-08-27T10:56:41.667Z,72.60
2022-08-27T10:58:07.473Z,72.60
2022-08-27T10:59:26.696Z,72.60
2022-08-27T11:00:53.693Z,72.60
2022-08-27T11:02:16.502Z,72.50
2022-08-27T11:03:41.707Z,72.60
2022-08-27T11:04:54.679Z,72.50
2022-08-27T11:06:00.643Z,72.50
2022-08-27T11:07:33.052Z,72.50
2022-08-27T11:08:44.705Z,72.50
2022-08-27T11:09:52.607Z,72.50
2022-08-27T11:12:10.391Z,72.50
2022-08-27T11:13:00.048Z,72.50
2022-08-27T11:14:09.471Z,72.50
2022-08-27T11:15:36.917Z,72.40
2022-08-27T11:16:48.981Z,72.40
2022-08-27T11:17:57.405Z,72.40
2022-08-27T11:19:04.549Z,72.90
2022-08-27T11:20:20.842Z,72.40
2022-08-27T11:21:34.527Z,72.40
2022-08-27T11:22:51.094Z,72.40
2022-08-27T11:24:00.865Z,72.40
2022-08-27T11:25:24.171Z,72.30
2022-08-27T11:26:33.287Z,72.30
2022-08-27T11:27:37.473Z,72.30
2022-08-27T11:29:22.116Z,72.30
2022-08-27T11:30:34.858Z,72.30
2022-08-27T11:31:44.518Z,72.30
2022-08-27T11:33:06.972Z,72.30
2022-08-27T11:34:33.629Z,72.30
2022-08-27T11:35:50.306Z,72.80
2022-08-27T11:37:06.413Z,72.20
2022-08-27T11:38:35.877Z,72.30
2022-08-27T11:40:05.499Z,72.20
2022-08-27T11:41:16.332Z,72.20
2022-08-27T11:42:21.470Z,72.20
2022-08-27T11:43:31.459Z,72.10
2022-08-27T11:44:43.149Z,72.20
2022-08-27T11:46:12.053Z,72.20
2022-08-27T11:47:22.939Z,72.20
2022-08-27T11:48:28.931Z,72.20
2022-08-27T11:49:45.078Z,72.20
2022-08-27T11:51:32.826Z,72.20
2022-08-27T11:52:42.128Z,72.10
2022-08-27T11:54:03.352Z,72.10
2022-08-27T11:55:17.138Z,72.10
2022-08-27T11:56:31.012Z,72.00
2022-08-27T11:57:41.858Z,72.10
2022-08-27T11:58:53.063Z,72.10
2022-08-27T11:59:56.161Z,72.10
2022-08-27T12:01:04.797Z,72.00
2022-08-27T12:02:35.397Z,72.60
2022-08-27T12:03:40.908Z,72.00
2022-08-27T12:04:43.417Z,72.00
2022-08-27T12:05:55.247Z,72.00
2022-08-27T12:07:06.122Z,72.10
2022-08-27T12:08:16.173Z,72.00
2022-08-27T12:09:23.576Z,72.00
2022-08-27T12:10:40.015Z,72.00
2022-08-27T12:12:06.249Z,71.90
2022-08-27T12:13:22.605Z,72.00
2022-08-27T12:14:49.466Z,71.90
2022-08-27T12:16:04.667Z,71.90
2022-08-27T12:17:22.219Z,72.00
2022-08-27T12:18:44.657Z,71.90
2022-08-27T12:20:32.449Z,72.00
2022-08-27T12:22:06.754Z,72.00
2022-08-27T12:23:45.050Z,71.90
2022-08-27T12:24:59.452Z,72.00
2022-08-27T12:26:26.385Z,71.90
2022-08-27T12:27:36.462Z,71.90
2022-08-27T12:28:38.855Z,71.90
2022-08-27T12:29:57.737Z,71.90
2022-08-27T12:31:06.929Z,71.90
2022-08-27T12:32:17.086Z,71.90
2022-08-27T12:33:34.905Z,71.80
2022-08-27T12:34:47.534Z,71.90
2022-08-27T12:35:52.521Z,71.90
2022-08-27T12:36:57.627Z,71.90
2022-08-27T12:38:16.150Z,71.90
2022-08-27T12:39:27.381Z,71.90
2022-08-27T12:40:41.289Z,71.90
2022-08-27T12:41:48.713Z,71.90
2022-08-27T12:43:03.811Z,71.80
2022-08-27T12:44:09.297Z,71.80
2022-08-27T12:45:24.317Z,71.90
2022-08-27T12:46:33.499Z,71.90
2022-08-27T12:47:44.749Z,71.80
2022-08-27T12:49:11.016Z,71.80
2022-08-27T12:50:30.427Z,71.80
2022-08-27T12:51:37.826Z,71.80
2022-08-27T12:52:59.580Z,71.80
2022-08-27T12:54:06.734Z,71.70
2022-08-27T12:55:15.487Z,71.70
2022-08-27T12:56:48.194Z,71.80
2022-08-27T12:58:16.045Z,71.80
2022-08-27T12:59:40.056Z,71.80
2022-08-27T13:01:01.610Z,71.70
2022-08-27T13:02:19.606Z,71.70
2022-08-27T13:03:35.589Z,71.80
2022-08-27T13:04:41.350Z,71.80
2022-08-27T13:05:48.539Z,71.70
2022-08-27T13:06:51.282Z,71.70
2022-08-27T13:07:56.909Z,71.70
2022-08-27T13:09:13.007Z,71.70
2022-08-27T13:10:19.545Z,71.70
2022-08-27T13:11:44.139Z,71.70
2022-08-27T13:13:04.167Z,71.70
2022-08-27T13:14:10.972Z,71.70
2022-08-27T13:15:17.046Z,71.70
2022-08-27T13:16:21.929Z,71.70
2022-08-27T13:17:25.826Z,71.70
2022-08-27T13:18:29.886Z,71.70
2022-08-27T13:19:54.711Z,71.70
2022-08-27T13:21:13.308Z,71.70
2022-08-27T13:22:25.103Z,71.60
2022-08-27T13:23:30.206Z,72.20
2022-08-27T13:24:35.938Z,71.70
2022-08-27T13:25:52.365Z,71.70
2022-08-27T13:26:57.733Z,71.60
2022-08-27T13:28:07.750Z,71.70
2022-08-27T13:29:10.717Z,71.60
2022-08-27T13:30:22.900Z,71.70
2022-08-27T13:31:54.739Z,71.70
2022-08-27T13:33:00.447Z,71.60
2022-08-27T13:34:07.524Z,71.60
2022-08-27T13:35:13.025Z,71.60
2022-08-27T13:36:32.160Z,71.60
2022-08-27T13:37:51.867Z,71.60
2022-08-27T13:38:54.995Z,71.60
2022-08-27T13:40:07.517Z,71.60
2022-08-27T13:41:20.157Z,71.60
2022-08-27T13:42:25.778Z,71.50
2022-08-27T13:43:36.891Z,71.60
2022-08-27T13:44:40.947Z,71.50
2022-08-27T13:45:51.537Z,71.60
2022-08-27T13:47:02.037Z,71.50
2022-08-27T13:48:06.084Z,71.60
2022-08-27T13:49:21.903Z,71.50
2022-08-27T13:50:29.565Z,71.60
2022-08-27T13:51:37.787Z,71.60
2022-08-27T13:53:01.761Z,71.50
2022-08-27T13:54:13.326Z,71.60
2022-08-27T13:55:18.128Z,71.50
2022-08-27T13:56:50.096Z,71.60
2022-08-27T13:57:52.791Z,71.50
2022-08-27T13:58:55.415Z,71.60
2022-08-27T14:00:28.344Z,71.60
2022-08-27T14:01:33.632Z,71.50
2022-08-27T14:02:36.613Z,71.50
2022-08-27T14:03:56.745Z,71.40
2022-08-27T14:05:15.361Z,71.40
2022-08-27T14:06:36.004Z,71.60
2022-08-27T14:08:19.156Z,71.50
2022-08-27T14:09:30.021Z,71.50
2022-08-27T14:10:41.782Z,71.50
2022-08-27T14:11:45.714Z,71.50
2022-08-27T14:12:58.429Z,71.50
2022-08-27T14:14:00.746Z,71.50
2022-08-27T14:15:23.110Z,71.50
2022-08-27T14:16:30.636Z,71.50
2022-08-27T14:17:38.195Z,71.50
2022-08-27T14:18:59.499Z,71.50
2022-08-27T14:20:04.415Z,71.50
2022-08-27T14:21:10.591Z,71.40
2022-08-27T14:22:13.168Z,71.50
2022-08-27T14:23:18.723Z,71.40
2022-08-27T14:24:21.190Z,71.40
2022-08-27T14:25:26.590Z,71.50
2022-08-27T14:26:29.442Z,71.40
2022-08-27T14:27:31.916Z,71.40
2022-08-27T14:28:34.343Z,71.40
2022-08-27T14:29:36.806Z,71.40
2022-08-27T14:30:39.857Z,71.40
2022-08-27T14:31:42.294Z,71.40
2022-08-27T14:32:49.445Z,71.40
2022-08-27T14:34:04.501Z,71.40
2022-08-27T14:35:07.630Z,71.40
2022-08-27T14:36:11.197Z,71.40
2022-08-27T14:37:14.807Z,71.40
2022-08-27T14:38:22.615Z,71.40
2022-08-27T14:40:57.608Z,71.40
2022-08-27T14:42:03.126Z,71.40
2022-08-27T14:43:07.966Z,71.40
2022-08-27T14:44:10.318Z,71.40
2022-08-27T14:45:15.292Z,71.40
2022-08-27T14:46:24.762Z,71.40
2022-08-27T14:47:26.404Z,71.30
2022-08-27T14:47:34.658Z,71.30
2022-08-27T14:48:51.507Z,71.40
2022-08-27T14:49:54.235Z,71.40